Gradyville, Kentucky
Current Conditions -  °F | °C
As of 5:35 PM on Thursday 18 Dec 2014 (Local Time) from KGLW Reporting Station
Overcast Overcast  
Wind Chill: 33°   Ceiling: 3600
Heat Index: 33°   Visibility: 10mi
Dew Point: 27°   Wind: 0mph
Humidity: 77%   Direction: NA
Pressure: 30.21"   Gusts: NA
Location:  37.06°N, 85.42°W
Report Text: KGLW 182335Z AUTO 00000KT 10SM OVC036 01/M03 A3021 RMK AO2 T00081028
Loading
Personal Weather Stations






























Interactive Weather Map New forecast layout! Learn more

10-Day Weather Forecast

Advertisements
Track Severe Weather on mobile